sensor_id;sensor_type;location;lat;lon;timestamp;pressure;altitude;pressure_sealevel;temperature;humidity
57644;BME280;43474;46.510;6.686;2023-08-06T00:00:24;96137.59;;;22.82;60.13
57644;BME280;43474;46.510;6.686;2023-08-06T00:03:10;96116.63;;;22.79;59.66
57644;BME280;43474;46.510;6.686;2023-08-06T00:05:35;96115.84;;;22.78;60.01
57644;BME280;43474;46.510;6.686;2023-08-06T00:08:01;96123.63;;;22.80;59.89
57644;BME280;43474;46.510;6.686;2023-08-06T00:10:27;96119.34;;;22.79;59.79
57644;BME280;43474;46.510;6.686;2023-08-06T00:12:53;96114.41;;;22.81;59.66
57644;BME280;43474;46.510;6.686;2023-08-06T00:15:18;96109.31;;;22.79;59.66
57644;BME280;43474;46.510;6.686;2023-08-06T00:17:44;96107.59;;;22.75;59.66
57644;BME280;43474;46.510;6.686;2023-08-06T00:20:10;96108.53;;;22.79;59.55
57644;BME280;43474;46.510;6.686;2023-08-06T00:22:37;96120.47;;;22.78;59.24
57644;BME280;43474;46.510;6.686;2023-08-06T00:25:03;96101.72;;;22.73;59.13
57644;BME280;43474;46.510;6.686;2023-08-06T00:27:29;96096.78;;;22.75;59.14
57644;BME280;43474;46.510;6.686;2023-08-06T00:29:55;96101.53;;;22.78;58.93
57644;BME280;43474;46.510;6.686;2023-08-06T00:32:21;96086.75;;;22.75;58.79
57644;BME280;43474;46.510;6.686;2023-08-06T00:34:47;96095.66;;;22.76;58.54
57644;BME280;43474;46.510;6.686;2023-08-06T00:37:17;96105.34;;;22.77;58.44
57644;BME280;43474;46.510;6.686;2023-08-06T00:39:44;96102.19;;;22.75;58.51
57644;BME280;43474;46.510;6.686;2023-08-06T00:42:10;96110.75;;;22.77;58.83
57644;BME280;43474;46.510;6.686;2023-08-06T00:44:37;96099.81;;;22.73;58.34
57644;BME280;43474;46.510;6.686;2023-08-06T00:47:03;96091.84;;;22.77;58.21
57644;BME280;43474;46.510;6.686;2023-08-06T00:49:29;96094.06;;;22.75;58.45
57644;BME280;43474;46.510;6.686;2023-08-06T00:51:56;96096.78;;;22.75;58.16
57644;BME280;43474;46.510;6.686;2023-08-06T00:54:22;96102.97;;;22.75;58.24
57644;BME280;43474;46.510;6.686;2023-08-06T00:56:49;96095.03;;;22.70;58.20
57644;BME280;43474;46.510;6.686;2023-08-06T00:59:14;96100.13;;;22.71;58.03
57644;BME280;43474;46.510;6.686;2023-08-06T01:01:40;96101.72;;;22.73;58.20
57644;BME280;43474;46.510;6.686;2023-08-06T01:04:06;96102.50;;;22.73;58.33
57644;BME280;43474;46.510;6.686;2023-08-06T01:06:46;96105.66;;;22.75;58.24
57644;BME280;43474;46.510;6.686;2023-08-06T01:09:57;96096.94;;;22.69;58.24
57644;BME280;43474;46.510;6.686;2023-08-06T01:13:00;96087.88;;;22.74;58.21
57644;BME280;43474;46.510;6.686;2023-08-06T01:15:32;96093.91;;;22.71;57.92
57644;BME280;43474;46.510;6.686;2023-08-06T01:18:00;96092.34;;;22.70;58.08
57644;BME280;43474;46.510;6.686;2023-08-06T01:20:29;96101.22;;;22.70;58.03
57644;BME280;43474;46.510;6.686;2023-08-06T01:22:55;96097.75;;;22.70;58.00
57644;BME280;43474;46.510;6.686;2023-08-06T01:25:22;96099.81;;;22.73;58.23
57644;BME280;43474;46.510;6.686;2023-08-06T01:27:57;96083.91;;;22.71;58.29
57644;BME280;43474;46.510;6.686;2023-08-06T01:30:28;96095.03;;;22.70;58.41
57644;BME280;43474;46.510;6.686;2023-08-06T01:32:58;96102.50;;;22.73;58.27
57644;BME280;43474;46.510;6.686;2023-08-06T01:35:26;96092.34;;;22.70;58.37
57644;BME280;43474;46.510;6.686;2023-08-06T01:37:53;96086.59;;;22.71;58.56
57644;BME280;43474;46.510;6.686;2023-08-06T01:40:18;96092.94;;;22.76;58.45
57644;BME280;43474;46.510;6.686;2023-08-06T01:42:44;96083.59;;;22.73;58.24
57644;BME280;43474;46.510;6.686;2023-08-06T01:45:10;96081.19;;;22.71;58.46
57644;BME280;43474;46.510;6.686;2023-08-06T01:47:35;96077.25;;;22.69;58.35
57644;BME280;43474;46.510;6.686;2023-08-06T01:50:01;96069.31;;;22.73;58.43
57644;BME280;43474;46.510;6.686;2023-08-06T01:52:27;96062.00;;;22.73;58.55
57644;BME280;43474;46.510;6.686;2023-08-06T01:54:53;96075.16;;;22.75;58.44
57644;BME280;43474;46.510;6.686;2023-08-06T01:57:19;96066.59;;;22.73;58.53
57644;BME280;43474;46.510;6.686;2023-08-06T01:59:44;96076.47;;;22.68;58.29
57644;BME280;43474;46.510;6.686;2023-08-06T02:02:10;96085.34;;;22.69;58.58
57644;BME280;43474;46.510;6.686;2023-08-06T02:04:36;96095.19;;;22.74;58.42
57644;BME280;43474;46.510;6.686;2023-08-06T02:07:01;96085.34;;;22.69;58.21
57644;BME280;43474;46.510;6.686;2023-08-06T02:09:27;96085.81;;;22.71;58.29
57644;BME280;43474;46.510;6.686;2023-08-06T02:11:53;96086.94;;;22.70;58.30
57644;BME280;43474;46.510;6.686;2023-08-06T02:14:18;96088.22;;;22.73;58.31
57644;BME280;43474;46.510;6.686;2023-08-06T02:16:44;96090.75;;;22.69;58.21
57644;BME280;43474;46.510;6.686;2023-08-06T02:19:09;96096.16;;;22.69;58.37
57644;BME280;43474;46.510;6.686;2023-08-06T02:21:35;96108.53;;;22.70;58.44
57644;BME280;43474;46.510;6.686;2023-08-06T02:24:00;96126.03;;;22.73;58.56
57644;BME280;43474;46.510;6.686;2023-08-06T02:26:26;96102.81;;;22.71;58.36
57644;BME280;43474;46.510;6.686;2023-08-06T02:28:51;96096.00;;;22.74;58.70
57644;BME280;43474;46.510;6.686;2023-08-06T02:31:17;96090.59;;;22.74;59.07
57644;BME280;43474;46.510;6.686;2023-08-06T02:33:42;96069.31;;;22.73;59.24
57644;BME280;43474;46.510;6.686;2023-08-06T02:36:08;96087.41;;;22.72;59.21
57644;BME280;43474;46.510;6.686;2023-08-06T02:38:33;96096.44;;;22.76;59.52
57644;BME280;43474;46.510;6.686;2023-08-06T02:41:02;96090.59;;;22.74;59.36
57644;BME280;43474;46.510;6.686;2023-08-06T02:43:28;96092.94;;;22.76;59.64
57644;BME280;43474;46.510;6.686;2023-08-06T02:45:57;96086.59;;;22.71;59.73
57644;BME280;43474;46.510;6.686;2023-08-06T02:48:23;96068.19;;;22.74;59.83
57644;BME280;43474;46.510;6.686;2023-08-06T02:50:49;96074.38;;;22.74;60.02
57644;BME280;43474;46.510;6.686;2023-08-06T02:53:14;96089.78;;;22.74;59.83
57644;BME280;43474;46.510;6.686;2023-08-06T02:55:47;96089.78;;;22.74;60.01
57644;BME280;43474;46.510;6.686;2023-08-06T02:58:16;96087.09;;;22.74;60.04
57644;BME280;43474;46.510;6.686;2023-08-06T03:00:43;96085.81;;;22.71;60.04
57644;BME280;43474;46.510;6.686;2023-08-06T03:03:09;96079.94;;;22.69;60.20
57644;BME280;43474;46.510;6.686;2023-08-06T03:05:35;96084.38;;;22.74;60.16
57644;BME280;43474;46.510;6.686;2023-08-06T03:08:00;96093.28;;;22.74;60.21
57644;BME280;43474;46.510;6.686;2023-08-06T03:10:26;96090.09;;;22.72;60.18
57644;BME280;43474;46.510;6.686;2023-08-06T03:12:52;96087.41;;;22.72;60.12
57644;BME280;43474;46.510;6.686;2023-08-06T03:15:18;96094.25;;;22.69;60.20
57644;BME280;43474;46.510;6.686;2023-08-06T03:17:43;96094.41;;;22.73;60.26
57644;BME280;43474;46.510;6.686;2023-08-06T03:20:10;96091.38;;;22.75;60.19
57644;BME280;43474;46.510;6.686;2023-08-06T03:22:36;96088.34;;;22.76;60.16
57644;BME280;43474;46.510;6.686;2023-08-06T03:25:02;96091.22;;;22.71;60.11
57644;BME280;43474;46.510;6.686;2023-08-06T03:27:28;96086.59;;;22.71;60.36
57644;BME280;43474;46.510;6.686;2023-08-06T03:29:54;96099.03;;;22.73;60.35
57644;BME280;43474;46.510;6.686;2023-08-06T03:32:19;96099.81;;;22.73;60.44
57644;BME280;43474;46.510;6.686;2023-08-06T03:34:45;96101.22;;;22.70;60.42
57644;BME280;43474;46.510;6.686;2023-08-06T03:37:11;96092.00;;;22.71;60.28
57644;BME280;43474;46.510;6.686;2023-08-06T03:39:36;96097.75;;;22.70;60.37
57644;BME280;43474;46.510;6.686;2023-08-06T03:42:02;96099.31;;;22.71;60.39
57644;BME280;43474;46.510;6.686;2023-08-06T03:44:28;96106.03;;;22.65;60.46
57644;BME280;43474;46.510;6.686;2023-08-06T03:46:53;96112.38;;;22.69;60.52
57644;BME280;43474;46.510;6.686;2023-08-06T03:49:19;96127.47;;;22.70;60.51
57644;BME280;43474;46.510;6.686;2023-08-06T03:51:45;96125.88;;;22.69;60.61
57644;BME280;43474;46.510;6.686;2023-08-06T03:54:12;96120.78;;;22.67;60.62
57644;BME280;43474;46.510;6.686;2023-08-06T03:56:38;96117.16;;;22.63;60.71
57644;BME280;43474;46.510;6.686;2023-08-06T03:59:03;96118.41;;;22.66;60.71
57644;BME280;43474;46.510;6.686;2023-08-06T04:01:29;96119.19;;;22.66;60.48
57644;BME280;43474;46.510;6.686;2023-08-06T04:03:54;96108.38;;;22.66;60.71
57644;BME280;43474;46.510;6.686;2023-08-06T04:06:20;96119.69;;;22.68;60.38
57644;BME280;43474;46.510;6.686;2023-08-06T04:08:45;96114.13;;;22.65;60.62
57644;BME280;43474;46.510;6.686;2023-08-06T04:11:11;96105.50;;;22.71;60.48
57644;BME280;43474;46.510;6.686;2023-08-06T04:13:42;96106.47;;;22.67;60.45
57644;BME280;43474;46.510;6.686;2023-08-06T04:16:07;96106.63;;;22.70;60.74
57644;BME280;43474;46.510;6.686;2023-08-06T04:18:33;96102.50;;;22.73;60.58
57644;BME280;43474;46.510;6.686;2023-08-06T04:20:58;96096.16;;;22.69;60.60
57644;BME280;43474;46.510;6.686;2023-08-06T04:23:24;96104.88;;;22.75;60.70
57644;BME280;43474;46.510;6.686;2023-08-06T04:25:50;96119.19;;;22.66;60.81
57644;BME280;43474;46.510;6.686;2023-08-06T04:28:15;96113.50;;;22.68;60.81
57644;BME280;43474;46.510;6.686;2023-08-06T04:30:41;96124.28;;;22.68;60.93
57644;BME280;43474;46.510;6.686;2023-08-06T04:33:07;96125.09;;;22.68;60.61
57644;BME280;43474;46.510;6.686;2023-08-06T04:35:32;96129.38;;;22.69;60.49
57644;BME280;43474;46.510;6.686;2023-08-06T04:37:58;96127.28;;;22.66;60.49
57644;BME280;43474;46.510;6.686;2023-08-06T04:40:23;96126.50;;;22.66;60.30
57644;BME280;43474;46.510;6.686;2023-08-06T04:42:49;96133.03;;;22.65;60.28
57644;BME280;43474;46.510;6.686;2023-08-06T04:45:15;96128.09;;;22.67;60.30
57644;BME280;43474;46.510;6.686;2023-08-06T04:47:40;96142.56;;;22.62;60.31
57644;BME280;43474;46.510;6.686;2023-08-06T04:50:06;96152.72;;;22.65;60.38
57644;BME280;43474;46.510;6.686;2023-08-06T04:52:32;96148.28;;;22.69;60.21
57644;BME280;43474;46.510;6.686;2023-08-06T04:54:57;96151.94;;;22.65;60.48
57644;BME280;43474;46.510;6.686;2023-08-06T04:57:23;96150.03;;;22.65;60.51
57644;BME280;43474;46.510;6.686;2023-08-06T04:59:49;96145.25;;;22.62;60.52
57644;BME280;43474;46.510;6.686;2023-08-06T05:02:14;96142.56;;;22.62;60.46
57644;BME280;43474;46.510;6.686;2023-08-06T05:04:40;96158.75;;;22.62;60.61
57644;BME280;43474;46.510;6.686;2023-08-06T05:07:05;96170.53;;;22.66;60.58
57644;BME280;43474;46.510;6.686;2023-08-06T05:09:31;96170.06;;;22.64;60.60
57644;BME280;43474;46.510;6.686;2023-08-06T05:11:57;96179.28;;;22.63;60.65
57644;BME280;43474;46.510;6.686;2023-08-06T05:14:23;96178.94;;;22.65;60.55
57644;BME280;43474;46.510;6.686;2023-08-06T05:16:48;96175.13;;;22.66;60.60
57644;BME280;43474;46.510;6.686;2023-08-06T05:19:14;96162.44;;;22.58;60.25
57644;BME280;43474;46.510;6.686;2023-08-06T05:21:40;96179.56;;;22.62;59.91
57644;BME280;43474;46.510;6.686;2023-08-06T05:24:05;96179.13;;;22.60;59.99
57644;BME280;43474;46.510;6.686;2023-08-06T05:26:31;96182.59;;;22.60;59.71
57644;BME280;43474;46.510;6.686;2023-08-06T05:28:56;96190.72;;;22.60;59.61
57644;BME280;43474;46.510;6.686;2023-08-06T05:31:22;96204.69;;;22.62;59.66
57644;BME280;43474;46.510;6.686;2023-08-06T05:33:47;96200.69;;;22.77;59.09
57644;BME280;43474;46.510;6.686;2023-08-06T05:36:13;96211.53;;;22.68;59.23
57644;BME280;43474;46.510;6.686;2023-08-06T05:38:38;96221.38;;;22.64;59.06
57644;BME280;43474;46.510;6.686;2023-08-06T05:41:04;96228.06;;;22.58;59.02
57644;BME280;43474;46.510;6.686;2023-08-06T05:43:29;96232.00;;;22.52;58.72
57644;BME280;43474;46.510;6.686;2023-08-06T05:45:55;96253.31;;;22.54;58.59
57644;BME280;43474;46.510;6.686;2023-08-06T05:48:21;96244.56;;;22.57;58.42
57644;BME280;43474;46.510;6.686;2023-08-06T05:50:48;96257.91;;;22.62;58.93
57644;BME280;43474;46.510;6.686;2023-08-06T05:53:13;96261.91;;;22.64;58.75
57644;BME280;43474;46.510;6.686;2023-08-06T05:55:39;96263.16;;;22.67;58.94
57644;BME280;43474;46.510;6.686;2023-08-06T05:58:04;96249.19;;;22.65;59.49
57644;BME280;43474;46.510;6.686;2023-08-06T06:00:30;96265.22;;;22.70;59.48
57644;BME280;43474;46.510;6.686;2023-08-06T06:02:56;96264.78;;;22.68;59.72
57644;BME280;43474;46.510;6.686;2023-08-06T06:05:21;96262.84;;;22.68;59.77
57644;BME280;43474;46.510;6.686;2023-08-06T06:07:47;96270.63;;;22.70;59.92
57644;BME280;43474;46.510;6.686;2023-08-06T06:10:12;96270.78;;;22.65;59.94
57644;BME280;43474;46.510;6.686;2023-08-06T06:12:38;96276.84;;;22.70;60.09
57644;BME280;43474;46.510;6.686;2023-08-06T06:15:05;96271.41;;;22.62;60.13
57644;BME280;43474;46.510;6.686;2023-08-06T06:17:30;96276.03;;;22.61;60.13
57644;BME280;43474;46.510;6.686;2023-08-06T06:19:56;96291.78;;;22.59;60.44
57644;BME280;43474;46.510;6.686;2023-08-06T06:22:21;96290.31;;;22.62;60.54
57644;BME280;43474;46.510;6.686;2023-08-06T06:24:47;96286.69;;;22.66;60.09
57644;BME280;43474;46.510;6.686;2023-08-06T06:27:12;96299.53;;;22.61;60.25
57644;BME280;43474;46.510;6.686;2023-08-06T06:29:39;96299.69;;;22.56;59.98
57644;BME280;43474;46.510;6.686;2023-08-06T06:32:04;96303.22;;;22.65;60.19
57644;BME280;43474;46.510;6.686;2023-08-06T06:34:30;96302.88;;;22.66;59.95
57644;BME280;43474;46.510;6.686;2023-08-06T06:36:55;96310.34;;;22.61;59.76
57644;BME280;43474;46.510;6.686;2023-08-06T06:39:21;96305.09;;;22.38;58.98
57644;BME280;43474;46.510;6.686;2023-08-06T06:41:46;96301.06;;;22.27;58.92
57644;BME280;43474;46.510;6.686;2023-08-06T06:44:13;96305.50;;;22.14;58.73
57644;BME280;43474;46.510;6.686;2023-08-06T06:46:39;96304.28;;;22.29;59.12
57644;BME280;43474;46.510;6.686;2023-08-06T06:49:04;96317.31;;;22.44;59.33
57644;BME280;43474;46.510;6.686;2023-08-06T06:51:30;96321.75;;;22.40;59.50
57644;BME280;43474;46.510;6.686;2023-08-06T06:53:57;96321.94;;;22.44;59.32
57644;BME280;43474;46.510;6.686;2023-08-06T06:56:23;96329.25;;;22.43;59.33
57644;BME280;43474;46.510;6.686;2023-08-06T06:58:48;96324.00;;;22.47;59.35
57644;BME280;43474;46.510;6.686;2023-08-06T07:01:14;96329.88;;;22.49;59.60
57644;BME280;43474;46.510;6.686;2023-08-06T07:03:40;96329.56;;;22.51;59.73
57644;BME280;43474;46.510;6.686;2023-08-06T07:06:06;96316.69;;;22.48;59.70
57644;BME280;43474;46.510;6.686;2023-08-06T07:08:32;96317.50;;;22.48;59.56
57644;BME280;43474;46.510;6.686;2023-08-06T07:11:05;96323.38;;;22.50;59.55
57644;BME280;43474;46.510;6.686;2023-08-06T07:13:32;96334.63;;;22.52;59.70
57644;BME280;43474;46.510;6.686;2023-08-06T07:15:58;96331.66;;;22.54;59.62
57644;BME280;43474;46.510;6.686;2023-08-06T07:18:24;96330.69;;;22.50;59.75
57644;BME280;43474;46.510;6.686;2023-08-06T07:20:50;96348.16;;;22.52;59.63
57644;BME280;43474;46.510;6.686;2023-08-06T07:23:20;96360.38;;;22.50;59.52
57644;BME280;43474;46.510;6.686;2023-08-06T07:25:46;96346.72;;;22.46;59.48
57644;BME280;43474;46.510;6.686;2023-08-06T07:28:13;96354.66;;;22.51;59.84
57644;BME280;43474;46.510;6.686;2023-08-06T07:30:39;96360.53;;;22.44;59.64
57644;BME280;43474;46.510;6.686;2023-08-06T07:33:05;96358.81;;;22.49;59.76
57644;BME280;43474;46.510;6.686;2023-08-06T07:35:31;96363.88;;;22.50;59.98
57644;BME280;43474;46.510;6.686;2023-08-06T07:37:57;96370.56;;;22.53;60.23
57644;BME280;43474;46.510;6.686;2023-08-06T07:40:22;96366.59;;;22.50;60.21
57644;BME280;43474;46.510;6.686;2023-08-06T07:42:48;96375.97;;;22.53;60.24
57644;BME280;43474;46.510;6.686;2023-08-06T07:45:14;96366.25;;;22.52;60.17
57644;BME280;43474;46.510;6.686;2023-08-06T07:47:40;96348.00;;;22.49;59.96
57644;BME280;43474;46.510;6.686;2023-08-06T07:50:05;96350.06;;;22.52;59.92
57644;BME280;43474;46.510;6.686;2023-08-06T07:52:31;96363.09;;;22.50;60.10
57644;BME280;43474;46.510;6.686;2023-08-06T07:54:57;96363.66;;;22.29;59.35
57644;BME280;43474;46.510;6.686;2023-08-06T07:57:22;96375.88;;;21.96;58.85
57644;BME280;43474;46.510;6.686;2023-08-06T07:59:48;96379.69;;;21.94;58.54
57644;BME280;43474;46.510;6.686;2023-08-06T08:02:13;96378.53;;;21.87;58.32
57644;BME280;43474;46.510;6.686;2023-08-06T08:04:39;96392.13;;;22.04;58.12
57644;BME280;43474;46.510;6.686;2023-08-06T08:07:04;96385.09;;;22.26;58.64
57644;BME280;43474;46.510;6.686;2023-08-06T08:09:30;96386.69;;;22.27;58.79
57644;BME280;43474;46.510;6.686;2023-08-06T08:11:56;96391.78;;;22.28;58.83
57644;BME280;43474;46.510;6.686;2023-08-06T08:14:21;96397.03;;;22.33;58.45
57644;BME280;43474;46.510;6.686;2023-08-06T08:16:47;96396.53;;;22.31;58.87
57644;BME280;43474;46.510;6.686;2023-08-06T08:19:12;96395.44;;;22.32;58.76
57644;BME280;43474;46.510;6.686;2023-08-06T08:21:38;96406.09;;;22.37;58.92
57644;BME280;43474;46.510;6.686;2023-08-06T08:24:04;96407.38;;;22.40;58.95
57644;BME280;43474;46.510;6.686;2023-08-06T08:26:30;96401.50;;;22.38;59.05
57644;BME280;43474;46.510;6.686;2023-08-06T08:28:56;96413.91;;;22.39;59.11
57644;BME280;43474;46.510;6.686;2023-08-06T08:31:22;96405.16;;;22.42;59.18
57644;BME280;43474;46.510;6.686;2023-08-06T08:33:47;96404.34;;;22.41;59.12
57644;BME280;43474;46.510;6.686;2023-08-06T08:36:13;96417.56;;;22.43;59.12
57644;BME280;43474;46.510;6.686;2023-08-06T08:38:39;96423.91;;;22.47;59.17
57644;BME280;43474;46.510;6.686;2023-08-06T08:41:05;96435.50;;;22.48;59.16
57644;BME280;43474;46.510;6.686;2023-08-06T08:43:31;96433.13;;;22.46;59.22
57644;BME280;43474;46.510;6.686;2023-08-06T08:45:58;96432.00;;;22.47;59.35
57644;BME280;43474;46.510;6.686;2023-08-06T08:48:25;96422.31;;;22.46;59.28
57644;BME280;43474;46.510;6.686;2023-08-06T08:50:53;96429.03;;;22.49;59.35
57644;BME280;43474;46.510;6.686;2023-08-06T08:53:18;96428.06;;;22.44;59.54
57644;BME280;43474;46.510;6.686;2023-08-06T08:55:48;96429.81;;;22.49;59.56
57644;BME280;43474;46.510;6.686;2023-08-06T08:58:14;96424.41;;;22.49;59.60
57644;BME280;43474;46.510;6.686;2023-08-06T09:00:45;96428.38;;;22.52;59.47
57644;BME280;43474;46.510;6.686;2023-08-06T09:03:11;96430.28;;;22.51;59.61
57644;BME280;43474;46.510;6.686;2023-08-06T09:05:41;96429.16;;;22.52;59.70
57644;BME280;43474;46.510;6.686;2023-08-06T09:08:08;96430.00;;;22.53;59.93
57644;BME280;43474;46.510;6.686;2023-08-06T09:10:36;96433.78;;;22.52;59.91
57644;BME280;43474;46.510;6.686;2023-08-06T09:13:04;96430.59;;;22.50;59.97
57644;BME280;43474;46.510;6.686;2023-08-06T09:15:32;96437.28;;;22.52;59.82
57644;BME280;43474;46.510;6.686;2023-08-06T09:17:57;96445.38;;;22.52;60.15
57644;BME280;43474;46.510;6.686;2023-08-06T09:20:23;96443.31;;;22.49;60.12
57644;BME280;43474;46.510;6.686;2023-08-06T09:22:48;96447.59;;;22.50;59.87
57644;BME280;43474;46.510;6.686;2023-08-06T09:25:24;96458.59;;;22.54;60.08
57644;BME280;43474;46.510;6.686;2023-08-06T09:27:51;96456.53;;;22.59;60.39
57644;BME280;43474;46.510;6.686;2023-08-06T09:30:31;96465.25;;;22.56;60.18
57644;BME280;43474;46.510;6.686;2023-08-06T09:32:57;96462.09;;;22.54;60.28
57644;BME280;43474;46.510;6.686;2023-08-06T09:35:23;96475.59;;;22.54;60.28
57644;BME280;43474;46.510;6.686;2023-08-06T09:37:49;96480.19;;;22.54;60.38
57644;BME280;43474;46.510;6.686;2023-08-06T09:40:29;96480.66;;;22.56;60.41
57644;BME280;43474;46.510;6.686;2023-08-06T09:42:55;96486.41;;;22.54;60.76
57644;BME280;43474;46.510;6.686;2023-08-06T09:45:22;96476.69;;;22.53;60.52
57644;BME280;43474;46.510;6.686;2023-08-06T09:47:49;96459.72;;;22.53;60.66
57644;BME280;43474;46.510;6.686;2023-08-06T09:50:21;96454.78;;;22.55;60.50
57644;BME280;43474;46.510;6.686;2023-08-06T09:52:47;96456.69;;;22.54;60.74
57644;BME280;43474;46.510;6.686;2023-08-06T09:55:14;96443.19;;;22.54;60.58
57644;BME280;43474;46.510;6.686;2023-08-06T09:57:41;96452.88;;;22.55;60.80
57644;BME280;43474;46.510;6.686;2023-08-06T10:00:12;96452.53;;;22.57;60.70
57644;BME280;43474;46.510;6.686;2023-08-06T10:02:39;96450.97;;;22.56;60.77
57644;BME280;43474;46.510;6.686;2023-08-06T10:05:06;96444.75;;;22.55;60.67
57644;BME280;43474;46.510;6.686;2023-08-06T10:07:33;96451.59;;;22.53;60.80
57644;BME280;43474;46.510;6.686;2023-08-06T10:09:59;96460.19;;;22.55;60.75
57644;BME280;43474;46.510;6.686;2023-08-06T10:12:26;96467.16;;;22.56;60.51
57644;BME280;43474;46.510;6.686;2023-08-06T10:14:55;96455.56;;;22.55;60.62
57644;BME280;43474;46.510;6.686;2023-08-06T10:17:23;96466.38;;;22.55;60.55
57644;BME280;43474;46.510;6.686;2023-08-06T10:19:50;96464.47;;;22.56;60.51
57644;BME280;43474;46.510;6.686;2023-08-06T10:22:18;96474.94;;;22.57;60.45
57644;BME280;43474;46.510;6.686;2023-08-06T10:24:50;96468.75;;;22.57;60.50
57644;BME280;43474;46.510;6.686;2023-08-06T10:27:29;96474.94;;;22.57;60.34
57644;BME280;43474;46.510;6.686;2023-08-06T10:30:27;96480.66;;;22.56;60.52
57644;BME280;43474;46.510;6.686;2023-08-06T10:32:53;96486.06;;;22.56;60.77
57644;BME280;43474;46.510;6.686;2023-08-06T10:35:37;96498.78;;;22.55;60.68
57644;BME280;43474;46.510;6.686;2023-08-06T10:38:12;96495.75;;;22.57;60.62
57644;BME280;43474;46.510;6.686;2023-08-06T10:46:01;96496.56;;;22.57;60.53
57644;BME280;43474;46.510;6.686;2023-08-06T10:51:00;96490.38;;;22.57;60.43
57644;BME280;43474;46.510;6.686;2023-08-06T10:53:26;96499.56;;;22.56;60.32
57644;BME280;43474;46.510;6.686;2023-08-06T10:55:51;96488.31;;;22.54;60.29
57644;BME280;43474;46.510;6.686;2023-08-06T10:58:17;96496.88;;;22.56;60.27
57644;BME280;43474;46.510;6.686;2023-08-06T11:00:43;96486.41;;;22.54;60.51
57644;BME280;43474;46.510;6.686;2023-08-06T11:03:08;96497.66;;;22.56;60.39
57644;BME280;43474;46.510;6.686;2023-08-06T11:05:38;96490.06;;;22.58;60.52
57644;BME280;43474;46.510;6.686;2023-08-06T11:08:04;96486.56;;;22.58;60.49
57644;BME280;43474;46.510;6.686;2023-08-06T11:10:32;96483.19;;;22.52;60.47
57644;BME280;43474;46.510;6.686;2023-08-06T11:13:01;96499.75;;;22.59;60.62
57644;BME280;43474;46.510;6.686;2023-08-06T11:15:27;96491.47;;;22.56;60.30
57644;BME280;43474;46.510;6.686;2023-08-06T11:17:54;96494.50;;;22.54;60.41
57644;BME280;43474;46.510;6.686;2023-08-06T11:20:20;96497.19;;;22.54;60.66
57644;BME280;43474;46.510;6.686;2023-08-06T11:22:46;96506.75;;;22.60;60.40
57644;BME280;43474;46.510;6.686;2023-08-06T11:25:12;96514.06;;;22.60;60.36
57644;BME280;43474;46.510;6.686;2023-08-06T11:27:37;96513.25;;;22.59;60.79
57644;BME280;43474;46.510;6.686;2023-08-06T11:30:03;96510.06;;;22.57;60.50
57644;BME280;43474;46.510;6.686;2023-08-06T11:32:29;96508.97;;;22.58;60.40
57644;BME280;43474;46.510;6.686;2023-08-06T11:34:55;96518.16;;;22.57;60.56
57644;BME280;43474;46.510;6.686;2023-08-06T11:37:22;96520.25;;;22.60;60.43
57644;BME280;43474;46.510;6.686;2023-08-06T11:39:49;96518.66;;;22.59;60.42
57644;BME280;43474;46.510;6.686;2023-08-06T11:42:15;96513.75;;;22.61;60.80
57644;BME280;43474;46.510;6.686;2023-08-06T11:44:41;96520.72;;;22.62;61.57
57644;BME280;43474;46.510;6.686;2023-08-06T11:47:16;96538.06;;;22.61;61.94
57644;BME280;43474;46.510;6.686;2023-08-06T11:49:46;96528.31;;;22.52;60.84
57644;BME280;43474;46.510;6.686;2023-08-06T11:52:17;96522.25;;;22.46;60.20
57644;BME280;43474;46.510;6.686;2023-08-06T11:54:45;96518.16;;;22.49;59.41
57644;BME280;43474;46.510;6.686;2023-08-06T11:57:12;96519.22;;;22.48;58.78
57644;BME280;43474;46.510;6.686;2023-08-06T11:59:39;96508.13;;;22.49;58.82
57644;BME280;43474;46.510;6.686;2023-08-06T12:02:08;96503.84;;;22.48;59.48
57644;BME280;43474;46.510;6.686;2023-08-06T12:05:02;96509.41;;;22.52;59.79
57644;BME280;43474;46.510;6.686;2023-08-06T12:07:31;96513.72;;;22.53;60.12
57644;BME280;43474;46.510;6.686;2023-08-06T12:09:57;96515.13;;;22.50;60.30
57644;BME280;43474;46.510;6.686;2023-08-06T12:12:23;96512.75;;;22.49;60.49
57644;BME280;43474;46.510;6.686;2023-08-06T12:14:49;96520.53;;;22.50;60.49
57644;BME280;43474;46.510;6.686;2023-08-06T12:17:15;96517.22;;;22.53;60.66
57644;BME280;43474;46.510;6.686;2023-08-06T12:19:40;96519.13;;;22.53;60.84
57644;BME280;43474;46.510;6.686;2023-08-06T12:22:06;96522.63;;;22.53;60.90
57644;BME280;43474;46.510;6.686;2023-08-06T12:24:32;96512.44;;;22.50;60.72
57644;BME280;43474;46.510;6.686;2023-08-06T12:26:58;96518.00;;;22.54;60.75
57644;BME280;43474;46.510;6.686;2023-08-06T12:29:25;96522.44;;;22.50;60.79
57644;BME280;43474;46.510;6.686;2023-08-06T12:31:50;96519.59;;;22.55;60.81
57644;BME280;43474;46.510;6.686;2023-08-06T12:34:16;96510.84;;;22.49;60.86
57644;BME280;43474;46.510;6.686;2023-08-06T12:36:42;96517.22;;;22.53;60.94
57644;BME280;43474;46.510;6.686;2023-08-06T12:39:07;96523.69;;;22.52;61.10
57644;BME280;43474;46.510;6.686;2023-08-06T12:41:33;96529.09;;;22.52;60.87
57644;BME280;43474;46.510;6.686;2023-08-06T12:43:58;96528.63;;;22.50;60.84
57644;BME280;43474;46.510;6.686;2023-08-06T12:46:24;96537.22;;;22.52;60.74
57644;BME280;43474;46.510;6.686;2023-08-06T12:48:49;96536.59;;;22.55;60.82
57644;BME280;43474;46.510;6.686;2023-08-06T12:51:16;96530.41;;;22.55;60.96
57644;BME280;43474;46.510;6.686;2023-08-06T12:53:42;96535.81;;;22.55;61.02
57644;BME280;43474;46.510;6.686;2023-08-06T12:56:07;96508.75;;;22.46;61.01
57644;BME280;43474;46.510;6.686;2023-08-06T12:58:33;96538.97;;;22.57;61.23
57644;BME280;43474;46.510;6.686;2023-08-06T13:00:59;96521.81;;;22.53;61.21
57644;BME280;43474;46.510;6.686;2023-08-06T13:03:24;96539.31;;;22.55;61.16
57644;BME280;43474;46.510;6.686;2023-08-06T13:05:50;96530.22;;;22.51;61.31